sensor_id;sensor_type;location;lat;lon;timestamp;P1;durP1;ratioP1;P2;durP2;ratioP2
74293;SDS011;62688;59.904;10.738;2022-08-19T00:01:17;8.48;;;3.45;;
74293;SDS011;62688;59.904;10.738;2022-08-19T00:03:42;7.82;;;3.80;;
74293;SDS011;62688;59.904;10.738;2022-08-19T00:06:08;8.07;;;4.07;;
74293;SDS011;62688;59.904;10.738;2022-08-19T00:08:34;10.15;;;3.78;;
74293;SDS011;62688;59.904;10.738;2022-08-19T00:11:00;4.82;;;3.17;;
74293;SDS011;62688;59.904;10.738;2022-08-19T00:13:26;8.20;;;3.30;;
74293;SDS011;62688;59.904;10.738;2022-08-19T00:15:53;6.15;;;3.35;;
74293;SDS011;62688;59.904;10.738;2022-08-19T00:18:19;8.05;;;3.47;;
74293;SDS011;62688;59.904;10.738;2022-08-19T00:20:45;6.57;;;3.22;;
74293;SDS011;62688;59.904;10.738;2022-08-19T00:23:11;8.63;;;3.63;;
74293;SDS011;62688;59.904;10.738;2022-08-19T00:25:36;6.78;;;3.55;;
74293;SDS011;62688;59.904;10.738;2022-08-19T00:28:02;5.88;;;3.42;;
74293;SDS011;62688;59.904;10.738;2022-08-19T00:30:29;5.65;;;3.85;;
74293;SDS011;62688;59.904;10.738;2022-08-19T00:32:55;6.25;;;3.83;;
74293;SDS011;62688;59.904;10.738;2022-08-19T00:35:21;5.35;;;3.90;;
74293;SDS011;62688;59.904;10.738;2022-08-19T00:37:48;7.57;;;3.90;;
74293;SDS011;62688;59.904;10.738;2022-08-19T00:40:14;11.45;;;4.68;;
74293;SDS011;62688;59.904;10.738;2022-08-19T00:42:41;10.32;;;4.25;;
74293;SDS011;62688;59.904;10.738;2022-08-19T00:45:12;4.95;;;3.35;;
74293;SDS011;62688;59.904;10.738;2022-08-19T00:47:45;7.07;;;4.18;;
74293;SDS011;62688;59.904;10.738;2022-08-19T00:50:12;6.22;;;3.95;;
74293;SDS011;62688;59.904;10.738;2022-08-19T00:52:40;8.57;;;4.15;;
74293;SDS011;62688;59.904;10.738;2022-08-19T00:55:10;9.35;;;3.90;;
74293;SDS011;62688;59.904;10.738;2022-08-19T00:57:44;7.95;;;4.00;;
74293;SDS011;62688;59.904;10.738;2022-08-19T01:00:17;9.18;;;4.10;;
74293;SDS011;62688;59.904;10.738;2022-08-19T01:02:44;9.20;;;4.13;;
74293;SDS011;62688;59.904;10.738;2022-08-19T01:05:23;8.85;;;5.10;;
74293;SDS011;62688;59.904;10.738;2022-08-19T01:07:52;8.70;;;4.35;;
74293;SDS011;62688;59.904;10.738;2022-08-19T01:10:20;12.45;;;6.03;;
74293;SDS011;62688;59.904;10.738;2022-08-19T01:12:49;6.93;;;4.60;;
74293;SDS011;62688;59.904;10.738;2022-08-19T01:15:17;6.32;;;4.35;;
74293;SDS011;62688;59.904;10.738;2022-08-19T01:17:46;8.88;;;4.43;;
74293;SDS011;62688;59.904;10.738;2022-08-19T01:20:14;9.15;;;4.53;;
74293;SDS011;62688;59.904;10.738;2022-08-19T01:22:45;7.20;;;4.25;;
74293;SDS011;62688;59.904;10.738;2022-08-19T01:25:14;8.50;;;4.43;;
74293;SDS011;62688;59.904;10.738;2022-08-19T01:27:43;6.60;;;4.40;;
74293;SDS011;62688;59.904;10.738;2022-08-19T01:30:13;6.32;;;4.05;;
74293;SDS011;62688;59.904;10.738;2022-08-19T01:32:41;5.90;;;4.43;;
74293;SDS011;62688;59.904;10.738;2022-08-19T01:35:09;8.18;;;4.43;;
74293;SDS011;62688;59.904;10.738;2022-08-19T01:37:47;9.43;;;4.45;;
74293;SDS011;62688;59.904;10.738;2022-08-19T01:40:19;8.50;;;4.10;;
74293;SDS011;62688;59.904;10.738;2022-08-19T01:42:47;8.00;;;4.65;;
74293;SDS011;62688;59.904;10.738;2022-08-19T01:45:14;9.68;;;5.20;;
74293;SDS011;62688;59.904;10.738;2022-08-19T01:47:39;8.73;;;5.05;;
74293;SDS011;62688;59.904;10.738;2022-08-19T01:50:06;7.30;;;4.20;;
74293;SDS011;62688;59.904;10.738;2022-08-19T01:52:35;6.30;;;4.38;;
74293;SDS011;62688;59.904;10.738;2022-08-19T01:55:01;7.32;;;4.78;;
74293;SDS011;62688;59.904;10.738;2022-08-19T01:57:27;8.60;;;5.00;;
74293;SDS011;62688;59.904;10.738;2022-08-19T01:59:53;8.23;;;5.55;;
74293;SDS011;62688;59.904;10.738;2022-08-19T02:02:18;6.78;;;4.60;;
74293;SDS011;62688;59.904;10.738;2022-08-19T02:04:44;11.07;;;5.40;;
74293;SDS011;62688;59.904;10.738;2022-08-19T02:07:10;8.30;;;5.18;;
74293;SDS011;62688;59.904;10.738;2022-08-19T02:09:37;14.57;;;7.18;;
74293;SDS011;62688;59.904;10.738;2022-08-19T02:12:03;8.73;;;5.38;;
74293;SDS011;62688;59.904;10.738;2022-08-19T02:14:30;8.40;;;5.15;;
74293;SDS011;62688;59.904;10.738;2022-08-19T02:16:55;7.07;;;5.03;;
74293;SDS011;62688;59.904;10.738;2022-08-19T02:19:21;7.30;;;5.38;;
74293;SDS011;62688;59.904;10.738;2022-08-19T02:21:47;8.15;;;5.35;;
74293;SDS011;62688;59.904;10.738;2022-08-19T02:24:12;8.30;;;5.50;;
74293;SDS011;62688;59.904;10.738;2022-08-19T02:26:38;8.13;;;4.40;;
74293;SDS011;62688;59.904;10.738;2022-08-19T02:29:04;8.43;;;4.70;;
74293;SDS011;62688;59.904;10.738;2022-08-19T02:31:30;6.00;;;4.05;;
74293;SDS011;62688;59.904;10.738;2022-08-19T02:33:56;7.05;;;4.35;;
74293;SDS011;62688;59.904;10.738;2022-08-19T02:36:22;7.82;;;4.57;;
74293;SDS011;62688;59.904;10.738;2022-08-19T02:38:49;7.00;;;4.30;;
74293;SDS011;62688;59.904;10.738;2022-08-19T02:41:16;9.45;;;4.10;;
74293;SDS011;62688;59.904;10.738;2022-08-19T02:43:45;7.35;;;4.85;;
74293;SDS011;62688;59.904;10.738;2022-08-19T02:46:15;10.05;;;4.57;;
74293;SDS011;62688;59.904;10.738;2022-08-19T02:48:49;6.80;;;4.70;;
74293;SDS011;62688;59.904;10.738;2022-08-19T02:51:17;5.85;;;4.20;;
74293;SDS011;62688;59.904;10.738;2022-08-19T02:53:45;8.57;;;4.57;;
74293;SDS011;62688;59.904;10.738;2022-08-19T02:56:11;4.78;;;3.92;;
74293;SDS011;62688;59.904;10.738;2022-08-19T02:58:37;7.20;;;4.28;;
74293;SDS011;62688;59.904;10.738;2022-08-19T03:01:03;9.55;;;4.70;;
74293;SDS011;62688;59.904;10.738;2022-08-19T03:03:29;7.30;;;3.78;;
74293;SDS011;62688;59.904;10.738;2022-08-19T03:06:08;4.95;;;3.80;;
74293;SDS011;62688;59.904;10.738;2022-08-19T03:08:37;5.78;;;4.07;;
74293;SDS011;62688;59.904;10.738;2022-08-19T03:11:03;7.75;;;4.00;;
74293;SDS011;62688;59.904;10.738;2022-08-19T03:13:29;6.80;;;4.82;;
74293;SDS011;62688;59.904;10.738;2022-08-19T03:15:54;6.35;;;4.50;;
74293;SDS011;62688;59.904;10.738;2022-08-19T03:18:20;8.35;;;4.72;;
74293;SDS011;62688;59.904;10.738;2022-08-19T03:20:50;13.00;;;5.10;;
74293;SDS011;62688;59.904;10.738;2022-08-19T03:23:18;5.72;;;3.85;;
74293;SDS011;62688;59.904;10.738;2022-08-19T03:25:45;5.18;;;3.70;;
74293;SDS011;62688;59.904;10.738;2022-08-19T03:28:12;6.65;;;3.97;;
74293;SDS011;62688;59.904;10.738;2022-08-19T03:30:40;4.63;;;3.70;;
74293;SDS011;62688;59.904;10.738;2022-08-19T03:33:08;5.13;;;3.75;;
74293;SDS011;62688;59.904;10.738;2022-08-19T03:35:36;5.25;;;3.65;;
74293;SDS011;62688;59.904;10.738;2022-08-19T03:38:05;3.95;;;3.25;;
74293;SDS011;62688;59.904;10.738;2022-08-19T03:40:31;5.20;;;3.90;;
74293;SDS011;62688;59.904;10.738;2022-08-19T03:42:59;5.10;;;3.00;;
74293;SDS011;62688;59.904;10.738;2022-08-19T03:45:25;7.18;;;3.33;;
74293;SDS011;62688;59.904;10.738;2022-08-19T03:47:52;3.83;;;2.88;;
74293;SDS011;62688;59.904;10.738;2022-08-19T03:50:18;4.97;;;3.28;;
74293;SDS011;62688;59.904;10.738;2022-08-19T03:52:47;3.95;;;3.20;;
74293;SDS011;62688;59.904;10.738;2022-08-19T03:55:15;3.28;;;2.22;;
74293;SDS011;62688;59.904;10.738;2022-08-19T03:57:41;4.70;;;2.90;;
74293;SDS011;62688;59.904;10.738;2022-08-19T04:00:07;3.80;;;2.50;;
74293;SDS011;62688;59.904;10.738;2022-08-19T04:02:34;4.68;;;2.55;;
74293;SDS011;62688;59.904;10.738;2022-08-19T04:04:59;3.53;;;2.15;;
74293;SDS011;62688;59.904;10.738;2022-08-19T04:07:25;5.45;;;2.40;;
74293;SDS011;62688;59.904;10.738;2022-08-19T04:09:51;5.75;;;2.45;;
74293;SDS011;62688;59.904;10.738;2022-08-19T04:12:18;4.82;;;2.25;;
74293;SDS011;62688;59.904;10.738;2022-08-19T04:14:45;4.28;;;2.28;;
74293;SDS011;62688;59.904;10.738;2022-08-19T04:17:11;2.53;;;2.10;;
74293;SDS011;62688;59.904;10.738;2022-08-19T04:19:38;3.78;;;2.13;;
74293;SDS011;62688;59.904;10.738;2022-08-19T04:22:03;5.32;;;2.95;;
74293;SDS011;62688;59.904;10.738;2022-08-19T04:24:29;5.50;;;2.53;;
74293;SDS011;62688;59.904;10.738;2022-08-19T04:26:55;5.25;;;2.35;;
74293;SDS011;62688;59.904;10.738;2022-08-19T04:29:22;3.45;;;2.35;;
74293;SDS011;62688;59.904;10.738;2022-08-19T04:31:50;3.55;;;1.95;;
74293;SDS011;62688;59.904;10.738;2022-08-19T04:34:18;3.60;;;2.45;;
74293;SDS011;62688;59.904;10.738;2022-08-19T04:36:49;3.60;;;2.05;;
74293;SDS011;62688;59.904;10.738;2022-08-19T04:39:17;3.33;;;2.13;;
74293;SDS011;62688;59.904;10.738;2022-08-19T04:41:45;5.25;;;2.67;;
74293;SDS011;62688;59.904;10.738;2022-08-19T04:44:30;3.33;;;2.00;;
74293;SDS011;62688;59.904;10.738;2022-08-19T04:46:57;4.97;;;2.20;;
74293;SDS011;62688;59.904;10.738;2022-08-19T04:49:23;2.17;;;1.90;;
74293;SDS011;62688;59.904;10.738;2022-08-19T04:51:49;3.95;;;2.13;;
74293;SDS011;62688;59.904;10.738;2022-08-19T04:54:19;7.20;;;2.25;;
74293;SDS011;62688;59.904;10.738;2022-08-19T04:56:48;3.83;;;2.20;;
74293;SDS011;62688;59.904;10.738;2022-08-19T04:59:15;2.80;;;1.98;;
74293;SDS011;62688;59.904;10.738;2022-08-19T05:01:42;6.30;;;2.80;;
74293;SDS011;62688;59.904;10.738;2022-08-19T05:04:07;4.93;;;3.20;;
74293;SDS011;62688;59.904;10.738;2022-08-19T05:06:34;2.83;;;2.08;;
74293;SDS011;62688;59.904;10.738;2022-08-19T05:09:01;3.78;;;2.20;;
74293;SDS011;62688;59.904;10.738;2022-08-19T05:11:31;3.45;;;2.30;;
74293;SDS011;62688;59.904;10.738;2022-08-19T05:13:58;5.22;;;2.40;;
74293;SDS011;62688;59.904;10.738;2022-08-19T05:16:25;5.07;;;2.10;;
74293;SDS011;62688;59.904;10.738;2022-08-19T05:18:52;10.27;;;2.60;;
74293;SDS011;62688;59.904;10.738;2022-08-19T05:21:38;5.72;;;2.80;;
74293;SDS011;62688;59.904;10.738;2022-08-19T05:24:25;6.60;;;2.10;;
74293;SDS011;62688;59.904;10.738;2022-08-19T05:26:51;5.60;;;2.50;;
74293;SDS011;62688;59.904;10.738;2022-08-19T05:29:21;4.15;;;2.00;;
74293;SDS011;62688;59.904;10.738;2022-08-19T05:31:48;3.42;;;1.83;;
74293;SDS011;62688;59.904;10.738;2022-08-19T05:34:15;5.63;;;2.05;;
74293;SDS011;62688;59.904;10.738;2022-08-19T05:36:42;3.30;;;1.95;;
74293;SDS011;62688;59.904;10.738;2022-08-19T05:39:11;5.03;;;1.65;;
74293;SDS011;62688;59.904;10.738;2022-08-19T05:41:42;3.70;;;1.73;;
74293;SDS011;62688;59.904;10.738;2022-08-19T05:44:08;3.03;;;1.70;;
74293;SDS011;62688;59.904;10.738;2022-08-19T05:46:35;7.22;;;2.25;;
74293;SDS011;62688;59.904;10.738;2022-08-19T05:49:02;11.25;;;1.95;;
74293;SDS011;62688;59.904;10.738;2022-08-19T05:51:29;2.60;;;1.60;;
74293;SDS011;62688;59.904;10.738;2022-08-19T05:53:55;5.32;;;2.13;;
74293;SDS011;62688;59.904;10.738;2022-08-19T05:56:21;4.50;;;1.55;;
74293;SDS011;62688;59.904;10.738;2022-08-19T05:58:46;4.65;;;2.20;;
74293;SDS011;62688;59.904;10.738;2022-08-19T06:01:13;6.57;;;2.60;;
74293;SDS011;62688;59.904;10.738;2022-08-19T06:03:41;4.60;;;1.80;;
74293;SDS011;62688;59.904;10.738;2022-08-19T06:06:07;4.10;;;1.73;;
74293;SDS011;62688;59.904;10.738;2022-08-19T06:08:34;4.30;;;1.73;;
74293;SDS011;62688;59.904;10.738;2022-08-19T06:13:39;6.47;;;1.88;;
74293;SDS011;62688;59.904;10.738;2022-08-19T06:16:05;7.90;;;2.35;;
74293;SDS011;62688;59.904;10.738;2022-08-19T06:18:30;3.28;;;1.45;;
74293;SDS011;62688;59.904;10.738;2022-08-19T06:20:58;4.45;;;1.98;;
74293;SDS011;62688;59.904;10.738;2022-08-19T06:23:23;4.75;;;1.90;;
74293;SDS011;62688;59.904;10.738;2022-08-19T06:25:50;4.68;;;1.83;;
74293;SDS011;62688;59.904;10.738;2022-08-19T06:28:16;3.80;;;1.67;;
74293;SDS011;62688;59.904;10.738;2022-08-19T06:30:42;4.95;;;1.90;;
74293;SDS011;62688;59.904;10.738;2022-08-19T06:33:07;4.95;;;1.85;;
74293;SDS011;62688;59.904;10.738;2022-08-19T06:35:33;3.17;;;1.48;;
74293;SDS011;62688;59.904;10.738;2022-08-19T06:38:04;3.42;;;1.52;;
74293;SDS011;62688;59.904;10.738;2022-08-19T06:40:30;4.30;;;1.63;;
74293;SDS011;62688;59.904;10.738;2022-08-19T06:42:55;6.72;;;2.15;;
74293;SDS011;62688;59.904;10.738;2022-08-19T06:45:23;6.40;;;2.25;;
74293;SDS011;62688;59.904;10.738;2022-08-19T06:47:49;3.25;;;1.40;;
74293;SDS011;62688;59.904;10.738;2022-08-19T06:50:22;5.40;;;1.95;;
74293;SDS011;62688;59.904;10.738;2022-08-19T06:52:48;6.10;;;1.60;;
74293;SDS011;62688;59.904;10.738;2022-08-19T06:55:14;3.88;;;1.80;;
74293;SDS011;62688;59.904;10.738;2022-08-19T06:57:40;2.90;;;1.45;;
74293;SDS011;62688;59.904;10.738;2022-08-19T07:00:07;4.15;;;1.63;;
74293;SDS011;62688;59.904;10.738;2022-08-19T07:02:40;4.55;;;1.95;;
74293;SDS011;62688;59.904;10.738;2022-08-19T07:05:06;1.98;;;1.38;;
74293;SDS011;62688;59.904;10.738;2022-08-19T07:07:32;2.95;;;1.20;;
74293;SDS011;62688;59.904;10.738;2022-08-19T07:09:59;4.10;;;1.80;;
74293;SDS011;62688;59.904;10.738;2022-08-19T07:12:25;4.95;;;1.80;;
74293;SDS011;62688;59.904;10.738;2022-08-19T07:14:59;3.88;;;1.65;;
74293;SDS011;62688;59.904;10.738;2022-08-19T07:17:25;6.55;;;1.50;;
74293;SDS011;62688;59.904;10.738;2022-08-19T07:19:51;3.88;;;1.55;;
74293;SDS011;62688;59.904;10.738;2022-08-19T07:22:17;4.30;;;1.67;;
74293;SDS011;62688;59.904;10.738;2022-08-19T07:24:45;6.90;;;1.75;;
74293;SDS011;62688;59.904;10.738;2022-08-19T07:27:13;7.10;;;1.92;;
74293;SDS011;62688;59.904;10.738;2022-08-19T07:29:39;5.47;;;2.00;;
74293;SDS011;62688;59.904;10.738;2022-08-19T07:32:05;3.35;;;1.50;;
74293;SDS011;62688;59.904;10.738;2022-08-19T07:34:31;4.43;;;1.60;;
74293;SDS011;62688;59.904;10.738;2022-08-19T07:37:02;5.85;;;2.00;;
74293;SDS011;62688;59.904;10.738;2022-08-19T07:39:30;3.90;;;1.40;;
74293;SDS011;62688;59.904;10.738;2022-08-19T07:41:57;6.93;;;1.85;;
74293;SDS011;62688;59.904;10.738;2022-08-19T07:44:25;4.63;;;1.63;;
74293;SDS011;62688;59.904;10.738;2022-08-19T07:46:53;8.02;;;2.47;;
74293;SDS011;62688;59.904;10.738;2022-08-19T07:49:21;3.97;;;1.60;;
74293;SDS011;62688;59.904;10.738;2022-08-19T07:51:48;7.78;;;1.98;;
74293;SDS011;62688;59.904;10.738;2022-08-19T07:54:17;3.33;;;1.75;;
74293;SDS011;62688;59.904;10.738;2022-08-19T07:56:44;4.07;;;1.98;;
74293;SDS011;62688;59.904;10.738;2022-08-19T07:59:10;6.00;;;1.50;;
74293;SDS011;62688;59.904;10.738;2022-08-19T08:01:36;2.10;;;1.42;;
74293;SDS011;62688;59.904;10.738;2022-08-19T08:04:04;3.30;;;1.30;;
74293;SDS011;62688;59.904;10.738;2022-08-19T08:06:49;5.85;;;1.75;;
74293;SDS011;62688;59.904;10.738;2022-08-19T08:09:35;4.82;;;1.55;;
74293;SDS011;62688;59.904;10.738;2022-08-19T08:12:05;4.55;;;1.80;;
74293;SDS011;62688;59.904;10.738;2022-08-19T08:14:37;3.83;;;1.20;;
74293;SDS011;62688;59.904;10.738;2022-08-19T08:17:05;3.38;;;1.30;;
74293;SDS011;62688;59.904;10.738;2022-08-19T08:19:32;2.88;;;1.30;;
74293;SDS011;62688;59.904;10.738;2022-08-19T08:21:58;4.13;;;1.88;;
74293;SDS011;62688;59.904;10.738;2022-08-19T08:24:30;2.15;;;1.30;;
74293;SDS011;62688;59.904;10.738;2022-08-19T08:26:56;3.88;;;1.38;;
74293;SDS011;62688;59.904;10.738;2022-08-19T08:29:24;3.78;;;1.42;;
74293;SDS011;62688;59.904;10.738;2022-08-19T08:31:52;1.45;;;1.05;;
74293;SDS011;62688;59.904;10.738;2022-08-19T08:34:18;4.55;;;1.55;;
74293;SDS011;62688;59.904;10.738;2022-08-19T08:36:45;4.10;;;1.58;;
74293;SDS011;62688;59.904;10.738;2022-08-19T08:39:12;4.60;;;1.45;;
74293;SDS011;62688;59.904;10.738;2022-08-19T08:45:13;4.20;;;1.60;;
74293;SDS011;62688;59.904;10.738;2022-08-19T08:47:23;4.57;;;1.50;;
74293;SDS011;62688;59.904;10.738;2022-08-19T08:49:56;2.22;;;1.30;;
74293;SDS011;62688;59.904;10.738;2022-08-19T08:52:27;4.80;;;1.40;;
74293;SDS011;62688;59.904;10.738;2022-08-19T08:54:55;4.95;;;1.83;;
74293;SDS011;62688;59.904;10.738;2022-08-19T09:00:00;4.45;;;1.63;;
74293;SDS011;62688;59.904;10.738;2022-08-19T09:02:30;3.42;;;1.40;;
74293;SDS011;62688;59.904;10.738;2022-08-19T09:04:56;3.67;;;1.50;;
74293;SDS011;62688;59.904;10.738;2022-08-19T09:15:20;4.55;;;1.70;;
74293;SDS011;62688;59.904;10.738;2022-08-19T09:17:53;8.98;;;2.10;;
74293;SDS011;62688;59.904;10.738;2022-08-19T09:20:20;3.97;;;1.75;;
74293;SDS011;62688;59.904;10.738;2022-08-19T09:22:47;3.13;;;1.25;;
74293;SDS011;62688;59.904;10.738;2022-08-19T09:25:16;2.75;;;1.60;;
74293;SDS011;62688;59.904;10.738;2022-08-19T09:27:45;6.82;;;1.40;;
74293;SDS011;62688;59.904;10.738;2022-08-19T09:30:21;3.65;;;1.42;;
74293;SDS011;62688;59.904;10.738;2022-08-19T09:32:52;6.43;;;2.00;;
74293;SDS011;62688;59.904;10.738;2022-08-19T09:35:19;2.58;;;1.20;;
74293;SDS011;62688;59.904;10.738;2022-08-19T09:37:50;3.80;;;1.35;;
74293;SDS011;62688;59.904;10.738;2022-08-19T09:40:17;9.90;;;1.65;;
74293;SDS011;62688;59.904;10.738;2022-08-19T09:42:44;3.72;;;1.27;;
74293;SDS011;62688;59.904;10.738;2022-08-19T09:45:11;3.35;;;1.50;;
74293;SDS011;62688;59.904;10.738;2022-08-19T09:47:38;6.38;;;1.65;;
74293;SDS011;62688;59.904;10.738;2022-08-19T09:50:05;3.95;;;1.48;;
74293;SDS011;62688;59.904;10.738;2022-08-19T09:52:32;2.88;;;1.30;;
74293;SDS011;62688;59.904;10.738;2022-08-19T09:54:59;11.25;;;2.13;;
74293;SDS011;62688;59.904;10.738;2022-08-19T09:57:24;3.83;;;1.90;;
74293;SDS011;62688;59.904;10.738;2022-08-19T09:59:50;2.92;;;1.70;;
74293;SDS011;62688;59.904;10.738;2022-08-19T10:02:16;8.00;;;1.55;;
74293;SDS011;62688;59.904;10.738;2022-08-19T10:04:42;3.97;;;1.50;;
74293;SDS011;62688;59.904;10.738;2022-08-19T10:07:26;4.97;;;1.55;;
74293;SDS011;62688;59.904;10.738;2022-08-19T10:09:54;4.78;;;1.27;;
74293;SDS011;62688;59.904;10.738;2022-08-19T10:12:20;1.80;;;1.02;;
74293;SDS011;62688;59.904;10.738;2022-08-19T10:14:47;2.17;;;1.45;;
74293;SDS011;62688;59.904;10.738;2022-08-19T10:17:13;3.20;;;1.40;;
74293;SDS011;62688;59.904;10.738;2022-08-19T10:19:39;3.22;;;1.42;;
74293;SDS011;62688;59.904;10.738;2022-08-19T10:22:05;2.80;;;2.17;;
74293;SDS011;62688;59.904;10.738;2022-08-19T10:24:32;3.95;;;1.70;;
74293;SDS011;62688;59.904;10.738;2022-08-19T10:26:59;3.55;;;1.60;;
74293;SDS011;62688;59.904;10.738;2022-08-19T10:29:28;3.50;;;1.60;;
74293;SDS011;62688;59.904;10.738;2022-08-19T10:31:54;4.40;;;1.65;;
74293;SDS011;62688;59.904;10.738;2022-08-19T10:34:20;3.28;;;1.60;;
74293;SDS011;62688;59.904;10.738;2022-08-19T10:36:46;3.90;;;1.90;;
74293;SDS011;62688;59.904;10.738;2022-08-19T10:39:12;3.35;;;1.60;;
74293;SDS011;62688;59.904;10.738;2022-08-19T10:41:38;3.75;;;1.42;;
74293;SDS011;62688;59.904;10.738;2022-08-19T10:44:05;5.57;;;2.50;;
74293;SDS011;62688;59.904;10.738;2022-08-19T10:46:34;3.97;;;1.63;;
74293;SDS011;62688;59.904;10.738;2022-08-19T10:49:02;2.97;;;1.35;;
74293;SDS011;62688;59.904;10.738;2022-08-19T10:51:30;2.65;;;1.35;;
74293;SDS011;62688;59.904;10.738;2022-08-19T10:54:14;3.00;;;1.20;;
74293;SDS011;62688;59.904;10.738;2022-08-19T10:56:40;2.53;;;1.50;;
74293;SDS011;62688;59.904;10.738;2022-08-19T11:01:49;3.13;;;1.40;;
74293;SDS011;62688;59.904;10.738;2022-08-19T11:04:16;3.20;;;1.40;;
74293;SDS011;62688;59.904;10.738;2022-08-19T11:06:43;3.10;;;1.23;;
74293;SDS011;62688;59.904;10.738;2022-08-19T11:09:13;4.03;;;1.50;;
74293;SDS011;62688;59.904;10.738;2022-08-19T11:11:40;4.13;;;1.70;;
74293;SDS011;62688;59.904;10.738;2022-08-19T11:14:07;2.80;;;1.80;;
74293;SDS011;62688;59.904;10.738;2022-08-19T11:16:34;4.72;;;1.90;;
74293;SDS011;62688;59.904;10.738;2022-08-19T11:18:59;5.35;;;1.40;;
74293;SDS011;62688;59.904;10.738;2022-08-19T11:21:30;3.17;;;1.65;;
74293;SDS011;62688;59.904;10.738;2022-08-19T11:23:58;3.95;;;1.20;;
74293;SDS011;62688;59.904;10.738;2022-08-19T11:26:26;1.67;;;1.02;;
74293;SDS011;62688;59.904;10.738;2022-08-19T11:28:53;1.55;;;0.80;;
74293;SDS011;62688;59.904;10.738;2022-08-19T11:31:22;4.57;;;1.30;;
74293;SDS011;62688;59.904;10.738;2022-08-19T11:33:51;4.70;;;1.10;;
74293;SDS011;62688;59.904;10.738;2022-08-19T11:36:18;2.17;;;1.02;;
74293;SDS011;62688;59.904;10.738;2022-08-19T11:38:46;2.28;;;1.05;;
74293;SDS011;62688;59.904;10.738;2022-08-19T11:41:13;3.08;;;0.90;;
74293;SDS011;62688;59.904;10.738;2022-08-19T11:43:40;2.45;;;0.95;;
74293;SDS011;62688;59.904;10.738;2022-08-19T11:46:10;3.20;;;1.25;;
74293;SDS011;62688;59.904;10.738;2022-08-19T11:48:39;2.90;;;1.20;;
74293;SDS011;62688;59.904;10.738;2022-08-19T11:51:05;1.30;;;0.68;;
74293;SDS011;62688;59.904;10.738;2022-08-19T11:53:36;2.40;;;1.08;;
74293;SDS011;62688;59.904;10.738;2022-08-19T11:56:03;1.58;;;0.80;;
74293;SDS011;62688;59.904;10.738;2022-08-19T11:58:30;2.53;;;1.20;;
74293;SDS011;62688;59.904;10.738;2022-08-19T12:00:56;1.55;;;0.70;;
74293;SDS011;62688;59.904;10.738;2022-08-19T12:03:22;1.98;;;1.00;;
74293;SDS011;62688;59.904;10.738;2022-08-19T12:05:48;1.92;;;1.35;;
74293;SDS011;62688;59.904;10.738;2022-08-19T12:08:15;1.98;;;1.00;;
74293;SDS011;62688;59.904;10.738;2022-08-19T12:10:41;2.90;;;1.42;;
74293;SDS011;62688;59.904;10.738;2022-08-19T12:13:08;5.15;;;1.25;;
74293;SDS011;62688;59.904;10.738;2022-08-19T12:15:38;3.70;;;0.98;;
74293;SDS011;62688;59.904;10.738;2022-08-19T12:18:06;2.65;;;1.13;;
74293;SDS011;62688;59.904;10.738;2022-08-19T12:20:37;3.28;;;1.00;;
74293;SDS011;62688;59.904;10.738;2022-08-19T12:25:30;1.95;;;1.02;;
74293;SDS011;62688;59.904;10.738;2022-08-19T12:27:56;4.32;;;1.20;;
74293;SDS011;62688;59.904;10.738;2022-08-19T12:30:22;1.17;;;0.80;;
74293;SDS011;62688;59.904;10.738;2022-08-19T12:32:48;1.90;;;0.98;;
74293;SDS011;62688;59.904;10.738;2022-08-19T12:35:16;1.60;;;1.00;;
74293;SDS011;62688;59.904;10.738;2022-08-19T12:37:42;1.95;;;0.95;;
74293;SDS011;62688;59.904;10.738;2022-08-19T12:40:09;1.88;;;1.10;;
74293;SDS011;62688;59.904;10.738;2022-08-19T12:42:37;1.88;;;1.00;;
74293;SDS011;62688;59.904;10.738;2022-08-19T12:45:06;2.88;;;0.93;;
74293;SDS011;62688;59.904;10.738;2022-08-19T12:47:32;2.40;;;1.20;;
74293;SDS011;62688;59.904;10.738;2022-08-19T12:49:58;1.77;;;1.00;;
74293;SDS011;62688;59.904;10.738;2022-08-19T12:52:24;2.85;;;1.20;;
74293;SDS011;62688;59.904;10.738;2022-08-19T12:54:52;2.00;;;1.00;;
74293;SDS011;62688;59.904;10.738;2022-08-19T12:57:19;3.50;;;1.17;;
74293;SDS011;62688;59.904;10.738;2022-08-19T12:59:46;4.30;;;1.13;;
74293;SDS011;62688;59.904;10.738;2022-08-19T13:02:11;2.22;;;0.73;;
74293;SDS011;62688;59.904;10.738;2022-08-19T13:04:37;2.70;;;0.88;;
74293;SDS011;62688;59.904;10.738;2022-08-19T13:07:05;2.15;;;1.00;;
74293;SDS011;62688;59.904;10.738;2022-08-19T13:09:33;1.30;;;0.98;;
74293;SDS011;62688;59.904;10.738;2022-08-19T13:11:59;2.65;;;1.38;;
74293;SDS011;62688;59.904;10.738;2022-08-19T13:14:28;9.10;;;1.55;;
74293;SDS011;62688;59.904;10.738;2022-08-19T13:16:55;1.80;;;1.25;;
74293;SDS011;62688;59.904;10.738;2022-08-19T13:19:22;2.15;;;1.23;;
74293;SDS011;62688;59.904;10.738;2022-08-19T13:21:49;4.13;;;1.15;;
74293;SDS011;62688;59.904;10.738;2022-08-19T13:24:16;1.52;;;1.02;;
74293;SDS011;62688;59.904;10.738;2022-08-19T13:26:42;5.07;;;1.40;;
74293;SDS011;62688;59.904;10.738;2022-08-19T13:29:07;1.48;;;0.82;;
74293;SDS011;62688;59.904;10.738;2022-08-19T13:31:51;5.13;;;1.33;;
74293;SDS011;62688;59.904;10.738;2022-08-19T13:34:36;2.38;;;1.27;;
74293;SDS011;62688;59.904;10.738;2022-08-19T13:37:02;2.10;;;1.10;;
74293;SDS011;62688;59.904;10.738;2022-08-19T13:39:32;3.00;;;1.17;;
74293;SDS011;62688;59.904;10.738;2022-08-19T13:41:59;2.53;;;1.08;;
74293;SDS011;62688;59.904;10.738;2022-08-19T13:44:25;3.03;;;1.77;;
74293;SDS011;62688;59.904;10.738;2022-08-19T13:46:51;2.13;;;1.20;;
74293;SDS011;62688;59.904;10.738;2022-08-19T13:49:18;3.40;;;1.33;;
74293;SDS011;62688;59.904;10.738;2022-08-19T13:51:45;1.23;;;1.10;;
74293;SDS011;62688;59.904;10.738;2022-08-19T13:54:11;2.55;;;1.08;;
74293;SDS011;62688;59.904;10.738;2022-08-19T13:56:42;1.52;;;1.00;;
74293;SDS011;62688;59.904;10.738;2022-08-19T13:59:08;2.05;;;1.08;;
74293;SDS011;62688;59.904;10.738;2022-08-19T14:01:34;3.13;;;1.08;;
74293;SDS011;62688;59.904;10.738;2022-08-19T14:04:00;4.80;;;1.08;;
74293;SDS011;62688;59.904;10.738;2022-08-19T14:06:27;1.15;;;0.90;;
74293;SDS011;62688;59.904;10.738;2022-08-19T14:08:52;2.50;;;1.15;;
74293;SDS011;62688;59.904;10.738;2022-08-19T14:11:18;4.95;;;1.17;;
74293;SDS011;62688;59.904;10.738;2022-08-19T14:13:44;1.52;;;0.80;;
74293;SDS011;62688;59.904;10.738;2022-08-19T14:16:11;2.05;;;0.90;;
74293;SDS011;62688;59.904;10.738;2022-08-19T14:18:38;4.30;;;2.03;;
74293;SDS011;62688;59.904;10.738;2022-08-19T14:21:04;3.95;;;1.30;;
74293;SDS011;62688;59.904;10.738;2022-08-19T14:23:31;0.98;;;0.77;;
74293;SDS011;62688;59.904;10.738;2022-08-19T14:26:05;2.70;;;0.98;;
74293;SDS011;62688;59.904;10.738;2022-08-19T14:28:32;1.77;;;1.02;;
74293;SDS011;62688;59.904;10.738;2022-08-19T14:30:58;1.45;;;0.93;;
74293;SDS011;62688;59.904;10.738;2022-08-19T14:33:23;6.50;;;1.55;;
74293;SDS011;62688;59.904;10.738;2022-08-19T14:35:49;3.63;;;1.13;;
74293;SDS011;62688;59.904;10.738;2022-08-19T14:38:16;1.30;;;1.20;;
74293;SDS011;62688;59.904;10.738;2022-08-19T14:40:43;1.23;;;0.95;;
74293;SDS011;62688;59.904;10.738;2022-08-19T14:43:09;2.63;;;1.20;;
74293;SDS011;62688;59.904;10.738;2022-08-19T14:45:36;2.40;;;0.90;;
74293;SDS011;62688;59.904;10.738;2022-08-19T14:48:03;3.53;;;1.73;;
74293;SDS011;62688;59.904;10.738;2022-08-19T14:50:29;3.50;;;1.73;;
74293;SDS011;62688;59.904;10.738;2022-08-19T14:53:00;5.30;;;1.70;;
74293;SDS011;62688;59.904;10.738;2022-08-19T14:55:28;3.28;;;1.60;;
74293;SDS011;62688;59.904;10.738;2022-08-19T14:57:54;6.65;;;1.70;;